createdAt,value
2023-03-11T00:02:22.519Z,49.00
2023-03-11T00:04:49.312Z,49.40
2023-03-11T00:07:16.014Z,48.30
2023-03-11T00:09:42.826Z,48.50
2023-03-11T00:12:09.598Z,48.80
2023-03-11T00:14:36.344Z,48.80
2023-03-11T00:17:03.117Z,48.10
2023-03-11T00:19:29.885Z,49.30
2023-03-11T00:21:57.885Z,48.80
2023-03-11T00:24:24.853Z,48.10
2023-03-11T00:26:51.607Z,49.10
2023-03-11T00:29:18.413Z,49.60
2023-03-11T00:31:45.157Z,48.00
2023-03-11T00:34:11.952Z,48.00
2023-03-11T00:36:38.646Z,48.00
2023-03-11T00:39:10.955Z,48.30
2023-03-11T00:41:37.921Z,49.50
2023-03-11T00:44:04.653Z,49.30
2023-03-11T00:46:31.607Z,49.50
2023-03-11T00:48:58.402Z,49.30
2023-03-11T00:51:25.172Z,49.30
2023-03-11T00:53:52.191Z,48.30
2023-03-11T00:56:18.901Z,48.00
2023-03-11T00:58:45.917Z,48.80
2023-03-11T01:01:18.425Z,49.20
2023-03-11T01:03:45.606Z,48.60
2023-03-11T01:06:13.059Z,48.50
2023-03-11T01:08:40.312Z,49.20
2023-03-11T01:11:07.752Z,48.60
2023-03-11T01:13:35.551Z,49.40
2023-03-11T01:16:02.622Z,48.10
2023-03-11T01:18:29.674Z,48.00
2023-03-11T01:20:56.627Z,48.90
2023-03-11T01:23:23.420Z,48.10
2023-03-11T01:25:50.302Z,48.00
2023-03-11T01:28:17.226Z,49.50
2023-03-11T01:30:44.612Z,48.90
2023-03-11T01:33:16.742Z,48.60
2023-03-11T01:35:44.621Z,49.00
2023-03-11T01:38:12.386Z,49.20
2023-03-11T01:40:48.544Z,48.00
2023-03-11T01:43:44.677Z,47.80
2023-03-11T01:46:24.239Z,47.80
2023-03-11T01:48:59.523Z,47.80
2023-03-11T01:51:35.678Z,47.90
2023-03-11T01:54:10.668Z,49.10
2023-03-11T01:56:39.564Z,48.30
2023-03-11T01:59:08.849Z,48.80
2023-03-11T02:01:41.635Z,47.90
2023-03-11T02:04:08.658Z,48.30
2023-03-11T02:06:36.094Z,47.70
2023-03-11T02:09:03.317Z,49.40
2023-03-11T02:11:31.256Z,47.70
2023-03-11T02:14:03.500Z,48.30
2023-03-11T02:16:30.742Z,48.00
2023-03-11T02:19:04.527Z,48.80
2023-03-11T02:21:34.211Z,47.70
2023-03-11T02:24:36.456Z,48.00
2023-03-11T02:27:08.227Z,47.70
2023-03-11T02:29:35.275Z,47.60
2023-03-11T02:32:06.944Z,48.20
2023-03-11T02:34:36.107Z,47.60
2023-03-11T02:37:08.481Z,48.00
2023-03-11T02:39:44.211Z,48.90
2023-03-11T02:42:28.377Z,48.30
2023-03-11T02:45:05.832Z,47.50
2023-03-11T02:47:33.442Z,47.50
2023-03-11T02:50:00.567Z,48.00
2023-03-11T02:52:33.772Z,47.70
2023-03-11T02:55:00.688Z,48.50
2023-03-11T02:57:27.549Z,48.20
2023-03-11T02:59:54.496Z,47.60
2023-03-11T03:02:21.438Z,48.80
2023-03-11T03:04:48.693Z,47.60
2023-03-11T03:07:16.184Z,48.30
2023-03-11T03:09:42.974Z,48.00
2023-03-11T03:12:09.805Z,48.40
2023-03-11T03:14:36.858Z,48.90
2023-03-11T03:17:04.008Z,48.60
2023-03-11T03:19:30.753Z,47.50
2023-03-11T03:21:57.569Z,47.60
2023-03-11T03:24:24.848Z,48.60
2023-03-11T03:26:52.136Z,47.90
2023-03-11T03:29:19.280Z,48.60
2023-03-11T03:31:48.210Z,47.90
2023-03-11T03:34:15.547Z,48.10
2023-03-11T03:36:42.502Z,47.50
2023-03-11T03:39:09.338Z,48.80
2023-03-11T03:41:37.469Z,48.40
2023-03-11T03:44:05.454Z,47.80
2023-03-11T03:46:34.399Z,47.80
2023-03-11T03:49:02.353Z,47.70
2023-03-11T03:51:30.437Z,49.00
2023-03-11T03:54:06.160Z,48.70
2023-03-11T03:56:33.000Z,48.80
2023-03-11T03:59:01.189Z,49.00
2023-03-11T04:01:34.859Z,48.40
2023-03-11T04:04:01.773Z,48.60
2023-03-11T04:06:28.720Z,48.20
2023-03-11T04:09:00.057Z,47.60
2023-03-11T04:11:31.502Z,48.40
2023-03-11T04:13:58.462Z,48.50
2023-03-11T04:16:25.592Z,47.80
2023-03-11T04:18:58.616Z,48.40
2023-03-11T04:21:25.331Z,47.40
2023-03-11T04:23:53.779Z,48.60
2023-03-11T04:26:24.075Z,47.60
2023-03-11T04:28:50.829Z,47.80
2023-03-11T04:31:17.952Z,48.40
2023-03-11T04:33:44.862Z,47.80
2023-03-11T04:36:12.828Z,47.30
2023-03-11T04:38:39.775Z,48.00
2023-03-11T04:41:08.813Z,48.30
2023-03-11T04:43:38.601Z,47.70
2023-03-11T04:46:05.415Z,47.30
2023-03-11T04:48:32.941Z,47.60
2023-03-11T04:50:59.751Z,47.20
2023-03-11T04:53:27.492Z,47.80
2023-03-11T04:55:54.563Z,48.40
2023-03-11T04:58:22.053Z,48.50
2023-03-11T05:00:48.909Z,48.10
2023-03-11T05:03:17.168Z,47.20
2023-03-11T05:05:44.979Z,48.30
2023-03-11T05:08:12.361Z,47.20
2023-03-11T05:10:41.830Z,47.90
2023-03-11T05:13:09.471Z,47.30
2023-03-11T05:15:38.662Z,47.10
2023-03-11T05:18:06.428Z,48.30
2023-03-11T05:20:34.917Z,47.20
2023-03-11T05:23:01.947Z,47.60
2023-03-11T05:25:31.164Z,48.70
2023-03-11T05:27:58.554Z,47.50
2023-03-11T05:30:25.501Z,48.30
2023-03-11T05:32:52.488Z,48.20
2023-03-11T05:35:20.843Z,47.00
2023-03-11T05:37:49.712Z,47.20
2023-03-11T05:40:18.218Z,47.90
2023-03-11T05:42:44.906Z,47.00
2023-03-11T05:45:14.194Z,47.00
2023-03-11T05:47:42.743Z,48.20
2023-03-11T05:50:12.864Z,46.90
2023-03-11T05:52:40.897Z,47.90
2023-03-11T05:55:09.829Z,47.50
2023-03-11T05:57:39.222Z,47.40
2023-03-11T06:00:12.044Z,48.20
2023-03-11T06:02:45.354Z,47.30
2023-03-11T06:05:15.389Z,48.00
2023-03-11T06:07:44.196Z,47.80
2023-03-11T06:10:11.946Z,49.10
2023-03-11T06:12:39.353Z,47.80
2023-03-11T06:15:23.480Z,47.90
2023-03-11T06:17:50.956Z,47.80
2023-03-11T06:20:19.025Z,48.70
2023-03-11T06:22:48.788Z,47.90
2023-03-11T06:25:16.074Z,49.20
2023-03-11T06:27:47.697Z,47.80
2023-03-11T06:30:15.013Z,49.50
2023-03-11T06:32:49.277Z,47.80
2023-03-11T06:35:16.484Z,48.30
2023-03-11T06:37:43.219Z,47.80
2023-03-11T06:40:11.663Z,49.00
2023-03-11T06:42:38.673Z,47.80
2023-03-11T06:45:08.293Z,47.80
2023-03-11T06:47:35.082Z,47.80
2023-03-11T06:50:06.502Z,48.30
2023-03-11T06:52:33.936Z,49.10
2023-03-11T06:55:01.088Z,47.80
2023-03-11T06:57:29.409Z,48.40
2023-03-11T06:59:57.719Z,48.10
2023-03-11T07:02:25.028Z,47.70
2023-03-11T07:04:51.974Z,47.80
2023-03-11T07:07:21.207Z,47.90
2023-03-11T07:09:48.291Z,48.30
2023-03-11T07:12:15.154Z,48.10
2023-03-11T07:14:42.222Z,47.40
2023-03-11T07:17:09.035Z,47.70
2023-03-11T07:19:41.783Z,47.40
2023-03-11T07:22:09.029Z,47.90
2023-03-11T07:24:35.836Z,48.00
2023-03-11T07:27:02.620Z,49.10
2023-03-11T07:29:29.342Z,48.20
2023-03-11T07:31:56.357Z,48.70
2023-03-11T07:34:23.157Z,47.20
2023-03-11T07:36:49.804Z,47.20
2023-03-11T07:39:18.956Z,48.00
2023-03-11T07:41:46.036Z,47.40
2023-03-11T07:44:14.378Z,47.50
2023-03-11T07:46:41.236Z,47.40
2023-03-11T07:49:08.661Z,47.60
2023-03-11T07:51:37.552Z,48.90
2023-03-11T07:54:05.628Z,48.00
2023-03-11T07:56:34.554Z,48.30
2023-03-11T07:59:03.656Z,49.70
2023-03-11T08:01:36.427Z,49.20
2023-03-11T08:04:05.493Z,48.80
2023-03-11T08:06:34.108Z,48.60
2023-03-11T08:09:03.297Z,48.70
2023-03-11T08:11:31.177Z,49.40
2023-03-11T08:13:58.463Z,48.60
2023-03-11T08:16:25.977Z,48.60
2023-03-11T08:18:53.859Z,49.00
2023-03-11T08:21:23.314Z,48.50
2023-03-11T08:23:50.725Z,49.10
2023-03-11T08:26:20.627Z,49.10
2023-03-11T08:28:48.410Z,49.00
2023-03-11T08:31:28.903Z,49.70
2023-03-11T08:33:59.184Z,48.50
2023-03-11T08:36:26.337Z,48.20
2023-03-11T08:38:53.268Z,48.10
2023-03-11T08:41:20.244Z,48.40
2023-03-11T08:43:47.174Z,49.20
2023-03-11T08:46:23.718Z,48.00
2023-03-11T08:48:50.768Z,48.00
2023-03-11T08:51:17.776Z,49.00
2023-03-11T08:53:44.570Z,48.80
2023-03-11T08:56:11.364Z,48.50
2023-03-11T08:58:38.477Z,47.80
2023-03-11T09:01:06.469Z,48.00
2023-03-11T09:03:35.234Z,48.10
2023-03-11T09:06:07.479Z,48.90
2023-03-11T09:08:34.838Z,47.60
2023-03-11T09:11:02.182Z,47.60
2023-03-11T09:13:29.186Z,47.60
2023-03-11T09:15:56.223Z,48.10
2023-03-11T09:18:23.204Z,47.60
2023-03-11T09:20:50.209Z,47.60
2023-03-11T09:23:18.294Z,47.90
2023-03-11T09:25:45.133Z,48.00
2023-03-11T09:28:11.911Z,47.60
2023-03-11T09:30:38.650Z,48.80
2023-03-11T09:33:05.512Z,47.40
2023-03-11T09:35:32.960Z,48.50
2023-03-11T09:38:00.113Z,47.30
2023-03-11T09:40:32.765Z,47.30
2023-03-11T09:42:59.367Z,47.30
2023-03-11T09:45:33.156Z,47.30
2023-03-11T09:48:22.817Z,47.20
2023-03-11T09:51:03.204Z,47.20
2023-03-11T09:53:52.559Z,48.00
2023-03-11T09:56:21.942Z,47.20
2023-03-11T09:58:56.611Z,48.10
2023-03-11T10:01:34.560Z,47.20
2023-03-11T10:04:20.136Z,47.20
2023-03-11T10:06:47.973Z,47.20
2023-03-11T10:09:53.525Z,48.30
2023-03-11T10:12:20.217Z,47.20
2023-03-11T10:14:54.307Z,48.00
2023-03-11T10:17:43.151Z,47.40
2023-03-11T10:20:15.640Z,47.10
2023-03-11T10:22:42.375Z,47.80
2023-03-11T10:25:12.093Z,47.10
2023-03-11T10:27:47.596Z,47.00
2023-03-11T10:30:29.710Z,47.00
2023-03-11T10:33:14.570Z,47.00
2023-03-11T10:35:44.648Z,48.00
2023-03-11T10:38:17.210Z,48.10
2023-03-11T10:40:46.843Z,47.00
2023-03-11T10:43:26.377Z,47.80
2023-03-11T10:45:53.941Z,46.80
2023-03-11T10:48:22.369Z,46.70
2023-03-11T10:51:22.545Z,46.80
2023-03-11T10:54:00.408Z,46.70
2023-03-11T10:56:42.020Z,47.20
2023-03-11T10:59:25.545Z,48.20
2023-03-11T11:02:25.939Z,48.20
2023-03-11T11:05:32.667Z,46.60
2023-03-11T11:08:19.442Z,46.50
2023-03-11T11:10:55.101Z,47.80
2023-03-11T11:13:27.354Z,46.40
2023-03-11T11:15:59.123Z,47.10
2023-03-11T11:18:42.264Z,46.50
2023-03-11T11:21:31.784Z,46.30
2023-03-11T11:24:09.762Z,46.30
2023-03-11T11:26:36.562Z,46.20
2023-03-11T11:29:23.689Z,46.30
2023-03-11T11:31:50.385Z,46.30
2023-03-11T11:34:32.301Z,46.70
2023-03-11T11:37:03.349Z,46.60
2023-03-11T11:39:57.990Z,46.10
2023-03-11T11:42:28.108Z,46.10
2023-03-11T11:45:00.405Z,46.70
2023-03-11T11:47:39.341Z,46.00
2023-03-11T11:50:12.973Z,46.60
2023-03-11T11:52:53.759Z,46.00
2023-03-11T11:55:25.083Z,46.20
2023-03-11T11:57:52.825Z,45.90
2023-03-11T12:01:01.206Z,46.20
2023-03-11T12:03:31.053Z,47.10
2023-03-11T12:06:24.344Z,47.10
2023-03-11T12:09:14.736Z,45.80
2023-03-11T12:11:54.337Z,45.80
2023-03-11T12:14:50.455Z,45.80
2023-03-11T12:17:23.434Z,45.80
2023-03-11T12:20:05.545Z,45.70
2023-03-11T12:23:08.954Z,45.70
2023-03-11T12:25:57.794Z,45.70
2023-03-11T12:28:45.416Z,45.70
2023-03-11T12:31:13.612Z,45.60
2023-03-11T12:33:51.143Z,45.90
2023-03-11T12:36:23.609Z,46.30
2023-03-11T12:38:51.997Z,46.50
2023-03-11T12:41:33.592Z,46.20
2023-03-11T12:44:21.700Z,46.00
2023-03-11T12:46:54.379Z,44.80
2023-03-11T12:49:27.379Z,45.50
2023-03-11T12:52:22.994Z,46.80
2023-03-11T12:55:18.794Z,45.60
2023-03-11T12:58:00.694Z,45.30
2023-03-11T13:00:47.626Z,45.40
2023-03-11T13:03:34.156Z,45.30
2023-03-11T13:06:20.956Z,45.30
2023-03-11T13:08:51.582Z,45.40
2023-03-11T13:11:27.585Z,45.50
2023-03-11T13:14:09.717Z,45.60
2023-03-11T13:16:37.595Z,45.60
2023-03-11T13:19:26.202Z,46.20
2023-03-11T13:21:53.880Z,45.80
2023-03-11T13:24:25.871Z,45.80
2023-03-11T13:27:05.897Z,47.10
2023-03-11T13:29:54.837Z,45.90
2023-03-11T13:32:25.554Z,45.80
2023-03-11T13:35:04.502Z,45.90
2023-03-11T13:38:12.040Z,45.70
2023-03-11T13:40:44.738Z,45.70
2023-03-11T13:43:24.863Z,46.70
2023-03-11T13:45:54.018Z,45.70
2023-03-11T13:48:32.000Z,45.70
2023-03-11T13:51:29.598Z,45.70
2023-03-11T13:54:22.181Z,45.70
2023-03-11T13:57:14.903Z,45.60
2023-03-11T13:59:41.771Z,46.30
2023-03-11T14:02:08.489Z,46.30
2023-03-11T14:04:37.379Z,46.80
2023-03-11T14:07:35.127Z,45.50
2023-03-11T14:10:25.802Z,45.80
2023-03-11T14:13:04.976Z,45.50
2023-03-11T14:15:40.901Z,46.10
2023-03-11T14:18:25.981Z,45.60
2023-03-11T14:20:52.757Z,45.30
2023-03-11T14:23:20.470Z,46.70
2023-03-11T14:25:47.337Z,45.80
2023-03-11T14:28:20.518Z,46.00
2023-03-11T14:30:56.936Z,45.00
2023-03-11T14:33:24.017Z,44.80
2023-03-11T14:35:59.669Z,44.70
2023-03-11T14:38:30.066Z,44.70
2023-03-11T14:41:01.485Z,45.40
2023-03-11T14:43:41.190Z,44.30
2023-03-11T14:46:09.689Z,44.10
2023-03-11T14:48:39.351Z,44.50
2023-03-11T14:51:13.850Z,44.90
2023-03-11T14:53:49.853Z,44.10
2023-03-11T14:56:21.811Z,44.20
2023-03-11T14:59:08.407Z,43.90
2023-03-11T15:01:42.340Z,44.10
2023-03-11T15:04:38.613Z,44.90
2023-03-11T15:07:06.093Z,44.80
2023-03-11T15:09:33.617Z,44.20
2023-03-11T15:12:02.636Z,44.10
2023-03-11T15:14:32.004Z,45.20
2023-03-11T15:17:33.151Z,44.10
2023-03-11T15:20:02.272Z,44.60
2023-03-11T15:22:41.131Z,44.40
2023-03-11T15:25:19.463Z,43.90
2023-03-11T15:27:46.677Z,44.50
2023-03-11T15:30:27.404Z,43.70
2023-03-11T15:32:55.597Z,43.80
2023-03-11T15:35:27.675Z,43.80
2023-03-11T15:38:20.532Z,44.00
2023-03-11T15:40:57.602Z,43.70
2023-03-11T15:43:40.738Z,43.70
2023-03-11T15:46:10.280Z,43.80
2023-03-11T15:48:37.031Z,43.90
2023-03-11T15:51:03.938Z,44.70
2023-03-11T15:53:31.126Z,44.00
2023-03-11T15:56:07.224Z,44.80
2023-03-11T15:58:37.003Z,45.00
2023-03-11T16:01:04.042Z,44.80
2023-03-11T16:03:31.553Z,44.00
2023-03-11T16:05:58.608Z,45.40
2023-03-11T16:08:25.341Z,44.70
2023-03-11T16:10:52.146Z,44.90
2023-03-11T16:13:18.891Z,45.10
2023-03-11T16:15:46.934Z,45.20
2023-03-11T16:18:14.020Z,45.00
2023-03-11T16:20:50.798Z,44.10
2023-03-11T16:23:23.599Z,43.90
2023-03-11T16:25:51.490Z,44.20
2023-03-11T16:28:18.290Z,43.80
2023-03-11T16:30:45.110Z,44.10
2023-03-11T16:33:11.981Z,43.80
2023-03-11T16:35:38.889Z,44.00
2023-03-11T16:38:07.473Z,44.30
2023-03-11T16:40:34.329Z,44.00
2023-03-11T16:43:05.957Z,43.80
2023-03-11T16:45:34.584Z,43.70
2023-03-11T16:48:02.273Z,44.00
2023-03-11T16:50:29.525Z,43.70
2023-03-11T16:52:57.462Z,45.40
2023-03-11T16:55:26.355Z,44.80
2023-03-11T16:57:54.623Z,44.40
2023-03-11T17:00:21.700Z,44.30
2023-03-11T17:02:49.335Z,43.70
2023-03-11T17:05:16.201Z,44.30
2023-03-11T17:07:43.088Z,43.70
2023-03-11T17:10:11.354Z,43.70
2023-03-11T17:12:38.077Z,43.70
2023-03-11T17:15:06.887Z,43.70
2023-03-11T17:17:33.670Z,43.70
2023-03-11T17:20:00.502Z,44.00
2023-03-11T17:22:27.394Z,43.80
2023-03-11T17:24:54.339Z,44.50
2023-03-11T17:27:21.108Z,43.70
2023-03-11T17:29:47.841Z,44.20
2023-03-11T17:32:17.474Z,45.60
2023-03-11T17:34:44.595Z,44.00
2023-03-11T17:37:11.474Z,44.30
2023-03-11T17:39:38.362Z,44.10
2023-03-11T17:42:05.365Z,44.00
2023-03-11T17:44:48.511Z,43.70
2023-03-11T17:47:15.502Z,44.60
2023-03-11T17:49:42.221Z,44.70
2023-03-11T17:52:08.954Z,45.20
2023-03-11T17:54:36.212Z,44.00
2023-03-11T17:57:02.982Z,44.30
2023-03-11T17:59:29.756Z,44.80
2023-03-11T18:01:56.727Z,45.10
2023-03-11T18:04:23.510Z,44.30
2023-03-11T18:06:52.684Z,44.60
2023-03-11T18:09:19.546Z,46.00
2023-03-11T18:11:46.443Z,45.50
2023-03-11T18:14:13.650Z,44.60
2023-03-11T18:16:40.577Z,44.50
2023-03-11T18:19:07.353Z,45.60
2023-03-11T18:21:34.115Z,44.40
2023-03-11T18:24:01.056Z,44.00
2023-03-11T18:26:29.408Z,44.70
2023-03-11T18:28:57.894Z,44.00
2023-03-11T18:31:26.397Z,44.00
2023-03-11T18:33:59.105Z,44.30
2023-03-11T18:36:28.830Z,44.10
2023-03-11T18:38:57.588Z,44.10
2023-03-11T18:41:25.538Z,44.10
2023-03-11T18:43:54.102Z,44.10
2023-03-11T18:46:20.989Z,44.30
2023-03-11T18:48:47.849Z,44.10
2023-03-11T18:51:15.255Z,44.10
2023-03-11T18:53:43.002Z,44.20
2023-03-11T18:56:14.112Z,44.50
2023-03-11T18:58:41.496Z,44.40
2023-03-11T19:01:12.270Z,45.30
2023-03-11T19:03:39.585Z,45.90
2023-03-11T19:06:09.390Z,45.70
2023-03-11T19:08:36.485Z,44.40
2023-03-11T19:11:18.838Z,45.90
2023-03-11T19:13:47.935Z,45.40
2023-03-11T19:16:22.349Z,44.40
2023-03-11T19:18:50.312Z,44.10
2023-03-11T19:21:17.906Z,44.20
2023-03-11T19:23:45.772Z,45.10
2023-03-11T19:26:12.956Z,44.50
2023-03-11T19:28:39.986Z,46.00
2023-03-11T19:31:06.871Z,46.00
2023-03-11T19:33:34.364Z,46.10
2023-03-11T19:36:04.018Z,45.00
2023-03-11T19:38:30.938Z,44.20
2023-03-11T19:41:07.220Z,46.00
2023-03-11T19:43:35.602Z,44.10
2023-03-11T19:46:04.178Z,44.20
2023-03-11T19:48:31.792Z,44.20
2023-03-11T19:50:58.514Z,44.20
2023-03-11T19:53:26.071Z,45.30
2023-03-11T19:55:55.628Z,44.20
2023-03-11T19:58:23.781Z,44.80
2023-03-11T20:00:50.962Z,45.80
2023-03-11T20:03:18.162Z,45.10
2023-03-11T20:05:46.689Z,44.30
2023-03-11T20:08:16.430Z,44.30
2023-03-11T20:10:46.018Z,44.60
2023-03-11T20:13:14.339Z,44.30
2023-03-11T20:15:41.421Z,44.30
2023-03-11T20:18:08.450Z,45.20
2023-03-11T20:20:39.057Z,44.30
2023-03-11T20:23:06.243Z,44.30
2023-03-11T20:25:33.141Z,44.60
2023-03-11T20:28:01.048Z,45.60
2023-03-11T20:30:28.822Z,45.30
2023-03-11T20:32:56.111Z,44.40
2023-03-11T20:35:23.386Z,44.30
2023-03-11T20:37:50.189Z,44.90
2023-03-11T20:40:18.447Z,44.30
2023-03-11T20:42:47.019Z,44.30
2023-03-11T20:45:17.417Z,44.30
2023-03-11T20:47:44.642Z,44.30
2023-03-11T20:50:12.657Z,45.70
2023-03-11T20:52:39.916Z,44.30
2023-03-11T20:55:08.348Z,44.50
2023-03-11T20:57:37.046Z,44.30
2023-03-11T21:00:09.042Z,44.20
2023-03-11T21:02:35.967Z,44.20
2023-03-11T21:05:02.980Z,45.50
2023-03-11T21:07:29.839Z,44.20
2023-03-11T21:09:57.862Z,44.60
2023-03-11T21:12:25.525Z,44.20
2023-03-11T21:14:52.425Z,44.20
2023-03-11T21:17:19.293Z,44.50
2023-03-11T21:19:46.399Z,44.50
2023-03-11T21:22:13.229Z,44.20
2023-03-11T21:24:39.977Z,45.60
2023-03-11T21:27:06.982Z,45.60
2023-03-11T21:29:33.877Z,45.50
2023-03-11T21:32:00.717Z,44.20
2023-03-11T21:34:27.729Z,44.40
2023-03-11T21:36:54.524Z,44.80
2023-03-11T21:39:21.760Z,44.20
2023-03-11T21:41:48.794Z,44.20
2023-03-11T21:44:15.819Z,44.30
2023-03-11T21:46:42.664Z,45.20
2023-03-11T21:49:09.452Z,44.50
2023-03-11T21:51:36.271Z,44.30
2023-03-11T21:54:05.793Z,45.50
2023-03-11T21:56:34.312Z,44.30
2023-03-11T21:59:01.144Z,44.30
2023-03-11T22:01:28.290Z,44.30
2023-03-11T22:03:56.432Z,44.90
2023-03-11T22:06:23.477Z,44.60
2023-03-11T22:08:50.366Z,44.50
2023-03-11T22:11:19.181Z,45.60
2023-03-11T22:13:51.515Z,45.90
2023-03-11T22:16:20.027Z,44.70
2023-03-11T22:18:47.161Z,44.40
2023-03-11T22:21:15.588Z,44.40
2023-03-11T22:23:43.485Z,44.40
2023-03-11T22:26:10.854Z,45.10
2023-03-11T22:28:37.632Z,44.40
2023-03-11T22:31:12.350Z,44.40
2023-03-11T22:33:39.418Z,45.30
2023-03-11T22:36:07.690Z,46.10
2023-03-11T22:38:35.384Z,44.40
2023-03-11T22:41:05.329Z,44.40
2023-03-11T22:43:32.035Z,44.50
2023-03-11T22:46:00.980Z,44.50
2023-03-11T22:48:29.087Z,45.90
2023-03-11T22:50:56.103Z,45.70
2023-03-11T22:53:24.767Z,45.60
2023-03-11T22:55:52.152Z,46.30
2023-03-11T22:58:19.040Z,44.90
2023-03-11T23:00:46.137Z,46.20
2023-03-11T23:03:13.477Z,45.50
2023-03-11T23:05:43.214Z,46.10
2023-03-11T23:08:12.213Z,45.60
2023-03-11T23:10:46.793Z,44.90
2023-03-11T23:13:13.605Z,45.00
2023-03-11T23:15:45.345Z,46.00
2023-03-11T23:18:13.201Z,45.10
2023-03-11T23:20:42.121Z,45.20
2023-03-11T23:23:09.821Z,46.00
2023-03-11T23:25:36.624Z,45.10
2023-03-11T23:28:04.937Z,45.40
2023-03-11T23:30:31.978Z,45.20
2023-03-11T23:32:59.969Z,45.70
2023-03-11T23:35:26.736Z,45.60
2023-03-11T23:37:53.443Z,45.40
2023-03-11T23:40:20.481Z,46.70
2023-03-11T23:42:47.946Z,45.50
2023-03-11T23:45:14.700Z,45.90
2023-03-11T23:47:41.417Z,45.50
2023-03-11T23:50:08.761Z,46.60
2023-03-11T23:52:35.645Z,45.70
2023-03-11T23:55:02.410Z,46.90
2023-03-11T23:57:29.078Z,46.70
2023-03-11T23:59:55.830Z,47.00
